Time;durP1;ratioP1;P1;durP2;ratioP2;P2;SDS_P1;SDS_P2;PMS_P1;PMS_P2;Temp;Humidity;BMP_temperature;BMP_pressure;BME280_temperature;BME280_humidity;BME280_pressure;Samples;Min_cycle;Max_cycle;Signal;HPM_P1;HPM_P2
2022/04/28 00:01:28;;;;;;;12.53;5.50;;;;;;;6.33;70.76;102693.88;6563188;22;20035;-77
2022/04/28 00:03:59;;;;;;;13.50;5.60;;;;;;;6.22;71.10;102697.78;6563509;22;20435;-80
2022/04/28 00:06:31;;;;;;;11.53;5.83;;;;;;;6.23;71.16;102696.97;6562767;22;20003;-80
2022/04/28 00:09:02;;;;;;;9.80;5.70;;;;;;;6.23;71.61;102696.06;6562731;22;20022;-76
2022/04/28 00:11:34;;;;;;;14.00;6.03;;;;;;;6.19;71.43;102697.66;6563553;22;20090;-79
2022/04/28 00:14:07;;;;;;;15.17;6.20;;;;;;;6.07;71.73;102705.88;6562917;22;20090;-80
2022/04/28 00:16:40;;;;;;;12.25;6.13;;;;;;;6.03;72.06;102704.00;6535970;22;19999;-78
2022/04/28 00:19:12;;;;;;;11.63;6.38;;;;;;;6.02;71.79;102697.94;6537076;22;20014;-79
2022/04/28 00:21:43;;;;;;;16.23;6.93;;;;;;;5.90;72.29;102697.44;6563776;22;20003;-79
2022/04/28 00:24:14;;;;;;;17.23;6.00;;;;;;;5.81;72.07;102699.69;6536395;22;20011;-79
2022/04/28 00:26:46;;;;;;;13.17;6.13;;;;;;;5.77;72.53;102701.28;6565281;22;20007;-79
2022/04/28 00:29:17;;;;;;;11.53;6.03;;;;;;;5.87;72.75;102709.41;6565463;22;20008;-80
2022/04/28 00:31:48;;;;;;;9.50;6.03;;;;;;;5.74;72.69;102702.88;6565877;22;20029;-77
2022/04/28 00:34:20;;;;;;;16.77;6.80;;;;;;;5.75;72.89;102699.47;6564856;22;20018;-80
2022/04/28 00:36:51;;;;;;;17.20;6.87;;;;;;;5.75;72.76;102695.19;6564647;22;20089;-78
2022/04/28 00:39:22;;;;;;;11.37;5.87;;;;;;;5.61;73.35;102697.22;6566177;22;20414;-78
2022/04/28 00:41:54;;;;;;;15.37;7.00;;;;;;;5.51;73.39;102696.84;6563839;22;20007;-78
2022/04/28 00:44:25;;;;;;;10.40;6.67;;;;;;;5.55;74.02;102698.69;6563531;22;20231;-79
2022/04/28 00:46:57;;;;;;;12.00;5.73;;;;;;;5.45;74.01;102685.41;6563183;22;20438;-78
2022/04/28 00:52:18;;;;;;;11.57;6.45;;;;;;;5.49;74.12;102694.19;6564934;22;20015;-79
2022/04/28 00:54:54;;;;;;;15.80;7.20;;;;;;;5.39;74.96;102702.38;6564997;22;20007;-78
2022/04/28 00:57:27;;;;;;;15.18;7.30;;;;;;;5.39;75.07;102690.34;6565611;22;20775;-79
2022/04/28 00:59:59;;;;;;;13.82;7.25;;;;;;;5.15;75.17;102690.25;6566018;22;19999;-80
2022/04/28 01:02:31;;;;;;;16.60;6.87;;;;;;;5.21;75.31;102690.50;6564560;22;20101;-79
2022/04/28 01:05:02;;;;;;;12.80;6.90;;;;;;;5.15;75.73;102692.81;6565717;22;20357;-80
2022/04/28 01:07:34;;;;;;;13.97;7.07;;;;;;;5.14;75.55;102683.31;6564476;22;20015;-79
2022/04/28 01:10:05;;;;;;;11.83;7.07;;;;;;;5.08;75.83;102689.13;6565586;22;20142;-80
2022/04/28 01:12:37;;;;;;;14.00;6.87;;;;;;;5.02;75.98;102688.84;6566722;22;20048;-78
2022/04/28 01:15:09;;;;;;;14.73;6.83;;;;;;;5.01;76.62;102694.88;6563581;22;20062;-79
2022/04/28 01:17:40;;;;;;;14.53;7.30;;;;;;;4.95;76.94;102692.03;6565520;22;20060;-79
2022/04/28 01:20:12;;;;;;;13.73;7.57;;;;;;;4.91;77.33;102692.72;6564900;22;20420;-77
2022/04/28 01:22:43;;;;;;;13.63;7.40;;;;;;;4.86;77.24;102696.81;6564693;22;20007;-78
2022/04/28 01:25:14;;;;;;;12.53;6.33;;;;;;;4.89;77.12;102699.53;6564906;22;20007;-78
2022/04/28 01:27:46;;;;;;;13.07;7.47;;;;;;;4.69;77.83;102693.53;6564971;22;20015;-78
2022/04/28 01:30:17;;;;;;;14.87;7.50;;;;;;;4.77;78.10;102694.75;6564922;22;20007;-79
2022/04/28 01:32:49;;;;;;;19.90;7.93;;;;;;;4.67;78.48;102696.06;6564285;22;20003;-77
2022/04/28 01:35:20;;;;;;;19.97;7.60;;;;;;;4.61;78.42;102698.38;6564910;22;20099;-78
2022/04/28 01:37:54;;;;;;;16.77;6.87;;;;;;;4.60;78.31;102706.94;6566080;22;20030;-79
2022/04/28 01:40:26;;;;;;;15.85;8.00;;;;;;;4.60;78.55;102699.19;6565215;22;20010;-79
2022/04/28 01:42:57;;;;;;;14.47;7.20;;;;;;;4.55;79.23;102695.53;6536561;22;20015;-79
2022/04/28 01:45:29;;;;;;;15.27;6.97;;;;;;;4.40;79.26;102694.88;6565160;22;19999;-79
2022/04/28 01:48:00;;;;;;;16.70;8.43;;;;;;;4.44;79.52;102699.34;6564514;22;20007;-78
2022/04/28 01:50:31;;;;;;;14.23;7.27;;;;;;;4.28;79.81;102695.22;6564013;22;20068;-77
2022/04/28 01:55:52;;;;;;;13.20;7.95;;;;;;;4.29;80.21;102699.56;6564431;22;20355;-79
2022/04/28 01:58:24;;;;;;;18.83;8.17;;;;;;;4.30;79.65;102691.00;6562130;22;20035;-79
2022/04/28 02:00:55;;;;;;;16.10;6.90;;;;;;;4.28;80.20;102693.53;6562938;22;20007;-79
2022/04/28 02:03:26;;;;;;;15.50;8.50;;;;;;;4.26;80.06;102692.56;6562709;22;20007;-78
2022/04/28 02:05:58;;;;;;;16.53;6.97;;;;;;;4.22;80.22;102698.44;6562181;22;20003;-78
2022/04/28 02:08:30;;;;;;;14.75;8.20;;;;;;;4.23;80.84;102700.16;6562398;22;20010;-79
2022/04/28 02:11:02;;;;;;;16.00;7.13;;;;;;;4.15;80.77;102704.13;6562570;22;20003;-77
2022/04/28 02:13:33;;;;;;;18.63;8.00;;;;;;;4.10;81.21;102701.31;6563370;22;20074;-78
2022/04/28 02:16:05;;;;;;;18.60;7.47;;;;;;;4.10;81.22;102701.31;6562801;22;20010;-76
2022/04/28 02:18:36;;;;;;;13.83;7.23;;;;;;;4.10;81.27;102703.03;6561483;22;20008;-78
2022/04/28 02:21:08;;;;;;;9.93;7.73;;;;;;;4.11;81.55;102708.25;6562580;22;20011;-77
2022/04/28 02:23:39;;;;;;;14.27;8.10;;;;;;;4.02;81.79;102710.41;6561441;22;20054;-78
2022/04/28 02:26:10;;;;;;;13.30;7.80;;;;;;;3.97;81.93;102707.63;6561719;22;20003;-75
2022/04/28 02:28:42;;;;;;;15.07;7.90;;;;;;;3.96;81.58;102708.47;6563150;22;20364;-78
2022/04/28 02:31:13;;;;;;;15.37;8.23;;;;;;;3.99;82.03;102703.44;6563995;22;20026;-79
2022/04/28 02:33:44;;;;;;;15.10;8.10;;;;;;;3.93;81.75;102700.59;6564643;22;20069;-77
2022/04/28 02:36:16;;;;;;;10.33;7.60;;;;;;;3.90;81.96;102697.00;6563285;22;20011;-79
2022/04/28 02:38:47;;;;;;;14.77;7.77;;;;;;;3.88;82.39;102699.50;6564848;22;19995;-79
2022/04/28 02:41:21;;;;;;;14.00;8.83;;;;;;;3.90;82.34;102697.00;6563850;22;20010;-78
2022/04/28 02:43:53;;;;;;;17.02;8.48;;;;;;;3.88;82.38;102696.91;6565152;22;20420;-79
2022/04/28 02:46:24;;;;;;;14.70;9.00;;;;;;;3.81;82.89;102687.13;6563565;22;20068;-79
2022/04/28 02:48:56;;;;;;;18.40;9.93;;;;;;;3.75;83.01;102697.16;6564775;22;20018;-80
2022/04/28 02:51:28;;;;;;;17.10;8.87;;;;;;;3.70;82.78;102696.06;6563809;22;20053;-79
2022/04/28 02:53:59;;;;;;;17.15;8.57;;;;;;;3.71;83.19;102692.69;6563473;22;20003;-79
2022/04/28 02:56:31;;;;;;;19.40;8.87;;;;;;;3.62;83.47;102688.88;6564081;22;20022;-79
2022/04/28 02:59:03;;;;;;;15.97;9.17;;;;;;;3.64;84.09;102692.38;6563773;22;20014;-77
2022/04/28 03:01:34;;;;;;;15.18;8.35;;;;;;;3.61;83.45;102696.53;6564290;22;20031;-79
2022/04/28 03:04:05;;;;;;;16.73;8.80;;;;;;;3.65;83.58;102693.25;6563567;22;20003;-76
2022/04/28 03:12:17;;;;;;;19.02;8.85;;;;;;;3.69;83.84;102694.28;6563723;22;20018;-80
2022/04/28 03:14:48;;;;;;;15.27;9.03;;;;;;;3.66;83.72;102692.47;6564990;22;19999;-79
2022/04/28 03:17:19;;;;;;;18.30;9.10;;;;;;;3.59;83.50;102695.53;6563550;22;20000;-80
2022/04/28 03:19:50;;;;;;;18.70;9.67;;;;;;;3.56;84.07;102693.72;6564089;22;20322;-79
2022/04/28 03:22:22;;;;;;;24.83;10.27;;;;;;;3.52;84.36;102691.81;6564565;22;20051;-79
2022/04/28 03:24:53;;;;;;;20.10;9.67;;;;;;;3.56;84.43;102693.72;6563502;22;20003;-79
2022/04/28 03:27:27;;;;;;;20.93;9.27;;;;;;;3.56;84.40;102691.16;6562811;22;20124;-77
2022/04/28 03:29:58;;;;;;;18.38;8.85;;;;;;;3.58;84.09;102689.53;6561955;22;20032;-79
2022/04/28 03:32:30;;;;;;;11.97;8.47;;;;;;;3.55;84.23;102691.09;6561719;22;20412;-79
2022/04/28 03:35:01;;;;;;;21.53;9.40;;;;;;;3.47;84.45;102699.31;6562938;22;20011;-77
2022/04/28 03:37:32;;;;;;;20.53;9.87;;;;;;;3.51;84.55;102692.63;6562697;22;20379;-80
2022/04/28 03:40:04;;;;;;;19.97;10.13;;;;;;;3.51;84.42;102695.22;6564455;22;20010;-79
2022/04/28 03:42:36;;;;;;;15.70;9.13;;;;;;;3.46;84.43;102691.50;6562627;22;20006;-80
2022/04/28 03:45:08;;;;;;;18.38;9.15;;;;;;;3.46;84.67;102700.16;6562235;22;20310;-80
2022/04/28 03:47:39;;;;;;;19.17;9.50;;;;;;;3.42;85.00;102695.66;6562690;22;20031;-77
2022/04/28 03:50:11;;;;;;;19.40;11.03;;;;;;;3.34;85.46;102698.69;6535954;22;20078;-80
2022/04/28 03:52:42;;;;;;;17.03;10.40;;;;;;;3.31;85.08;102701.13;6563098;22;20011;-80
2022/04/28 03:55:14;;;;;;;19.20;10.30;;;;;;;3.32;85.38;102708.94;6561423;22;20078;-79
2022/04/28 03:57:45;;;;;;;21.37;11.17;;;;;;;3.25;85.62;102701.69;6562167;22;20418;-79
2022/04/28 04:00:18;;;;;;;22.77;12.53;;;;;;;3.24;86.20;102718.84;6562504;22;20003;-78
2022/04/28 04:02:49;;;;;;;;;;;;;;;3.20;84.39;102718.63;6563869;22;20007;-79
2022/04/28 04:05:21;;;;;;;20.15;9.95;;;;;;;3.11;85.56;102721.66;6563721;22;20343;-79
2022/04/28 04:07:52;;;;;;;16.33;9.70;;;;;;;3.17;86.04;102713.31;6562769;22;20734;-80
2022/04/28 04:10:24;;;;;;;20.37;10.63;;;;;;;3.13;86.55;102709.72;6561744;22;20003;-79
2022/04/28 04:12:55;;;;;;;17.43;10.13;;;;;;;3.07;86.61;102709.41;6562919;22;20011;-77
2022/04/28 04:15:26;;;;;;;17.73;11.67;;;;;;;3.10;86.57;102717.31;6560033;22;20012;-78
2022/04/28 04:17:59;;;;;;;21.90;11.03;;;;;;;3.04;86.98;102722.16;6560984;22;20385;-79
2022/04/28 04:20:30;;;;;;;15.80;10.20;;;;;;;3.02;87.19;102716.91;6561815;22;19999;-77
2022/04/28 04:23:05;;;;;;;20.63;10.87;;;;;;;3.08;87.33;102716.34;6561252;22;20470;-79
2022/04/28 04:25:36;;;;;;;20.33;10.43;;;;;;;3.01;87.55;102722.91;6562450;22;20015;-77
2022/04/28 04:28:08;;;;;;;27.83;11.50;;;;;;;3.08;87.49;102724.09;6562543;22;20432;-77
2022/04/28 04:33:29;;;;;;;18.48;10.40;;;;;;;3.06;87.16;102725.72;6566937;22;20387;-78
2022/04/28 04:36:01;;;;;;;21.27;10.30;;;;;;;3.12;87.15;102728.56;6568792;22;20003;-78
2022/04/28 04:38:32;;;;;;;23.13;11.27;;;;;;;3.12;87.02;102736.28;6564912;22;19999;-78
2022/04/28 04:41:05;;;;;;;20.40;11.43;;;;;;;3.10;87.25;102727.59;6562446;22;20003;-79
2022/04/28 04:43:38;;;;;;;23.13;11.82;;;;;;;3.15;87.45;102727.84;6562728;22;20014;-79
2022/04/28 04:46:09;;;;;;;18.48;10.52;;;;;;;3.19;87.38;102732.31;6562849;22;20007;-79
2022/04/28 04:48:41;;;;;;;24.23;12.03;;;;;;;3.15;87.16;102736.44;6562733;22;20479;-80
2022/04/28 04:51:12;;;;;;;22.30;11.73;;;;;;;3.18;87.41;102738.28;6563809;22;20007;-78
2022/04/28 04:53:44;;;;;;;20.43;11.33;;;;;;;3.25;87.75;102737.78;6561042;22;20698;-77
2022/04/28 04:56:15;;;;;;;22.60;11.97;;;;;;;3.28;87.47;102740.50;6560824;22;20117;-78
2022/04/28 04:58:46;;;;;;;24.67;11.97;;;;;;;3.32;87.32;102739.84;6562921;22;20011;-78
2022/04/28 05:01:17;;;;;;;23.93;11.50;;;;;;;3.35;87.51;102754.56;6562263;22;20034;-77
2022/04/28 05:03:49;;;;;;;35.97;11.97;;;;;;;3.36;87.37;102753.78;6562989;22;20088;-78
2022/04/28 05:06:20;;;;;;;26.63;12.83;;;;;;;3.38;87.22;102749.56;6563724;22;20097;-77
2022/04/28 05:08:52;;;;;;;18.07;12.07;;;;;;;3.39;87.42;102746.19;6564325;22;19999;-77
2022/04/28 05:11:23;;;;;;;22.10;11.93;;;;;;;3.50;86.80;102747.59;6564176;22;20052;-79
2022/04/28 05:13:56;;;;;;;20.48;11.73;;;;;;;3.52;87.40;102758.84;6532007;22;20023;-79
2022/04/28 05:16:27;;;;;;;24.47;11.33;;;;;;;3.59;87.01;102765.19;6531625;22;20008;-78
2022/04/28 05:18:58;;;;;;;23.80;12.47;;;;;;;3.56;87.04;102772.75;6532733;22;20011;-78
2022/04/28 05:21:29;;;;;;;21.73;13.27;;;;;;;3.58;87.21;102777.19;6533191;22;20003;-78
2022/04/28 05:24:01;;;;;;;21.07;12.13;;;;;;;3.67;87.26;102778.44;6532343;22;20003;-78
2022/04/28 05:26:33;;;;;;;24.10;11.80;;;;;;;3.72;87.15;102780.44;6531601;22;20748;-80
2022/04/28 05:29:04;;;;;;;19.70;11.67;;;;;;;3.76;87.22;102773.72;6532238;22;20416;-80
2022/04/28 05:31:36;;;;;;;17.37;11.97;;;;;;;3.87;87.19;102777.69;6531405;22;20390;-78
2022/04/28 05:34:07;;;;;;;26.47;13.30;;;;;;;3.88;87.79;102781.16;6531083;22;20015;-78
2022/04/28 05:36:40;;;;;;;20.17;13.43;;;;;;;3.93;87.57;102778.00;6532262;22;20104;-78
2022/04/28 05:39:11;;;;;;;19.63;13.32;;;;;;;3.99;87.39;102778.28;6532431;22;20003;-78
2022/04/28 05:41:44;;;;;;;25.80;14.67;;;;;;;4.08;87.41;102784.69;6530941;22;20099;-78
2022/04/28 05:47:07;;;;;;;23.05;13.93;;;;;;;4.31;86.55;102786.59;6531329;22;20573;-78
2022/04/28 05:49:38;;;;;;;26.83;13.73;;;;;;;4.39;86.12;102792.09;6532042;22;20417;-78
2022/04/28 05:52:10;;;;;;;22.70;15.10;;;;;;;4.48;86.19;102789.06;6530754;22;20000;-79
2022/04/28 05:54:41;;;;;;;26.40;15.13;;;;;;;4.57;86.10;102799.78;6529388;22;20745;-77
2022/04/28 05:57:12;;;;;;;21.37;14.27;;;;;;;4.62;86.08;102793.16;6529892;22;20007;-80
2022/04/28 05:59:44;;;;;;;20.70;13.53;;;;;;;4.81;85.64;102801.69;6529509;22;20004;-78
2022/04/28 06:02:16;;;;;;;25.07;14.03;;;;;;;4.91;85.38;102809.91;6530232;22;20007;-78
2022/04/28 06:04:48;;;;;;;26.42;14.60;;;;;;;5.00;85.28;102812.00;6504277;22;20520;-78
2022/04/28 06:07:19;;;;;;;31.63;14.20;;;;;;;5.12;84.81;102803.91;6530661;22;20039;-79
2022/04/28 06:09:51;;;;;;;29.90;14.90;;;;;;;5.23;84.65;102819.84;6530488;22;20027;-76
2022/04/28 06:12:26;;;;;;;26.30;15.70;;;;;;;5.33;84.36;102816.84;6530590;22;20000;-79
2022/04/28 06:14:58;;;;;;;30.13;14.27;;;;;;;5.48;84.20;102829.50;6478516;22;20023;-78
2022/04/28 06:17:29;;;;;;;26.80;17.17;;;;;;;5.57;83.71;102810.88;6531586;22;20079;-79
2022/04/28 06:20:02;;;;;;;26.50;14.87;;;;;;;5.70;83.15;102822.59;6532073;22;20389;-79
2022/04/28 06:22:33;;;;;;;31.58;15.65;;;;;;;5.76;83.17;102823.72;6532193;22;20004;-79
2022/04/28 06:25:06;;;;;;;26.80;16.23;;;;;;;5.83;82.27;102819.69;6504927;22;20047;-79
2022/04/28 06:27:38;;;;;;;21.45;13.45;;;;;;;5.99;81.76;102831.59;6531452;22;20100;-78
2022/04/28 06:30:11;;;;;;;21.13;14.37;;;;;;;6.04;81.43;102832.63;6530972;22;20079;-78
2022/04/28 06:32:42;;;;;;;22.98;15.32;;;;;;;6.13;81.07;102834.69;6528947;22;20440;-79
2022/04/28 06:35:14;;;;;;;21.40;13.17;;;;;;;6.22;80.01;102840.22;6531196;22;20015;-79
2022/04/28 06:37:45;;;;;;;24.63;13.87;;;;;;;6.34;79.98;102835.53;6532454;22;20031;-79
2022/04/28 06:40:17;;;;;;;22.10;13.90;;;;;;;6.44;79.54;102841.94;6531150;22;20010;-78
2022/04/28 06:42:50;;;;;;;25.67;13.33;;;;;;;6.53;79.63;102842.25;6531452;22;20329;-79
2022/04/28 06:45:22;;;;;;;27.63;13.65;;;;;;;6.63;78.97;102845.19;6530783;22;20003;-79
2022/04/28 06:47:53;;;;;;;27.97;13.30;;;;;;;6.73;78.54;102837.81;6532110;22;20077;-79
2022/04/28 06:50:26;;;;;;;23.97;13.40;;;;;;;6.87;78.26;102837.41;6532202;22;20004;-79
2022/04/28 06:52:57;;;;;;;;;;;;;;;6.94;76.77;102840.28;6529402;22;20000;-78
2022/04/28 06:55:28;;;;;;;27.42;12.07;;;;;;;7.07;76.34;102843.31;6529853;22;20125;-79
2022/04/28 06:58:00;;;;;;;22.33;12.47;;;;;;;7.21;75.80;102848.94;6528700;22;20004;-80
2022/04/28 07:00:31;;;;;;;21.47;12.93;;;;;;;7.34;76.04;102855.44;6529275;22;20011;-78
2022/04/28 07:03:02;;;;;;;19.77;11.77;;;;;;;7.45;74.78;102855.00;6529717;22;20008;-78
2022/04/28 07:05:34;;;;;;;25.10;13.70;;;;;;;7.58;75.11;102858.88;6503328;22;20004;-79
2022/04/28 07:08:05;;;;;;;17.17;11.97;;;;;;;7.72;74.21;102863.63;6529988;22;20007;-80
2022/04/28 07:10:38;;;;;;;27.43;12.03;;;;;;;7.83;72.92;102863.13;6529737;22;20015;-78
2022/04/28 07:13:09;;;;;;;24.13;12.43;;;;;;;7.97;72.35;102867.88;6529064;22;20010;-78
2022/04/28 07:15:41;;;;;;;25.83;12.00;;;;;;;8.16;72.51;102870.22;6529555;22;20107;-79
2022/04/28 07:18:12;;;;;;;22.67;12.37;;;;;;;8.28;72.07;102868.84;6529744;22;19996;-79
2022/04/28 07:20:46;;;;;;;20.47;12.07;;;;;;;8.31;71.01;102869.81;6530114;22;20034;-80
2022/04/28 07:23:18;;;;;;;28.75;12.45;;;;;;;8.49;70.91;102871.22;6531002;22;20004;-78
2022/04/28 07:25:49;;;;;;;23.90;12.27;;;;;;;8.62;69.95;102877.66;6532041;22;20014;-78
2022/04/28 07:28:20;;;;;;;17.83;10.57;;;;;;;8.76;69.60;102881.53;6531437;22;20217;-80
2022/04/28 07:30:52;;;;;;;21.33;11.03;;;;;;;8.84;68.73;102879.13;6530263;22;20003;-78
2022/04/28 07:33:23;;;;;;;20.70;10.27;;;;;;;8.97;68.57;102891.66;6529768;22;20043;-80
2022/04/28 07:35:55;;;;;;;21.93;10.33;;;;;;;9.07;67.98;102888.47;6530612;22;20045;-78
2022/04/28 07:38:26;;;;;;;19.90;9.37;;;;;;;9.14;66.50;102892.09;6532576;22;20008;-80
2022/04/28 07:40:57;;;;;;;19.20;10.03;;;;;;;9.24;66.70;102896.75;6530330;22;20003;-79
2022/04/28 07:43:29;;;;;;;22.70;10.93;;;;;;;9.34;66.42;102891.75;6531680;22;20022;-79
2022/04/28 07:46:00;;;;;;;24.10;10.93;;;;;;;9.40;65.64;102891.91;6531573;22;20004;-78
2022/04/28 07:48:31;;;;;;;23.13;10.47;;;;;;;9.46;65.00;102903.38;6529309;22;20004;-79
2022/04/28 07:51:03;;;;;;;22.73;10.63;;;;;;;9.57;64.86;102898.44;6528604;22;20337;-79
2022/04/28 07:53:35;;;;;;;20.30;10.87;;;;;;;9.74;64.50;102898.88;6528725;22;20011;-79
2022/04/28 07:56:17;;;;;;;22.13;9.93;;;;;;;9.85;64.15;102899.13;6528337;22;20242;-79
2022/04/28 07:58:48;;;;;;;18.70;11.38;;;;;;;9.98;64.19;102902.91;6528806;22;20010;-80
2022/04/28 08:01:20;;;;;;;18.17;10.77;;;;;;;10.06;63.30;102906.56;6528610;22;20008;-80
2022/04/28 08:03:51;;;;;;;19.73;10.70;;;;;;;10.27;63.00;102905.28;6529267;22;20015;-78
2022/04/28 08:06:23;;;;;;;21.70;9.77;;;;;;;10.34;61.74;102907.25;6530622;22;20003;-78
2022/04/28 08:08:54;;;;;;;19.47;8.83;;;;;;;10.47;61.47;102906.66;6530328;22;20031;-79
2022/04/28 08:11:25;;;;;;;20.23;9.73;;;;;;;10.70;60.99;102908.88;6530416;22;20003;-79
2022/04/28 08:13:58;;;;;;;20.50;10.27;;;;;;;10.69;60.46;102912.31;6530997;22;20008;-79
2022/04/28 08:16:31;;;;;;;19.85;8.82;;;;;;;10.78;59.93;102917.72;6529639;22;20111;-79
2022/04/28 08:19:02;;;;;;;;;;;;;;;10.97;60.35;102912.91;6529385;22;20007;-79
2022/04/28 08:21:34;;;;;;;21.42;9.43;;;;;;;10.82;59.38;102918.66;6503326;22;20015;-78
2022/04/28 08:24:05;;;;;;;26.70;10.27;;;;;;;11.05;59.04;102916.53;6530530;22;20143;-81
2022/04/28 08:26:37;;;;;;;17.30;9.63;;;;;;;11.12;59.01;102915.78;6502493;22;20039;-79
2022/04/28 08:29:08;;;;;;;22.57;9.57;;;;;;;11.30;58.27;102929.19;6530068;22;20039;-79
2022/04/28 08:31:46;;;;;;;17.97;9.03;;;;;;;11.24;57.77;102920.38;6529209;22;20080;-79
2022/04/28 08:34:18;;;;;;;16.08;9.23;;;;;;;11.41;58.40;102925.91;6529361;22;20016;-80
2022/04/28 08:36:50;;;;;;;16.50;8.80;;;;;;;11.65;57.94;102934.16;6529942;22;20006;-79
2022/04/28 08:39:22;;;;;;;18.58;9.05;;;;;;;11.72;57.04;102924.72;6531889;22;20008;-81
2022/04/28 08:41:55;;;;;;;17.77;9.83;;;;;;;11.85;56.90;102931.03;6532191;22;20095;-80
2022/04/28 08:44:27;;;;;;;15.18;8.95;;;;;;;11.93;56.28;102931.16;6532808;22;20007;-80
2022/04/28 08:46:59;;;;;;;15.20;8.43;;;;;;;12.21;56.00;102925.50;6531233;22;20003;-79
2022/04/28 08:49:32;;;;;;;15.18;8.75;;;;;;;12.33;56.14;102926.53;6531832;22;20462;-79
2022/04/28 08:52:06;;;;;;;21.55;9.45;;;;;;;12.33;55.01;102923.91;6532324;22;20340;-79
2022/04/28 08:54:39;;;;;;;14.13;9.15;;;;;;;12.30;53.83;102924.78;6531280;22;20083;-79
2022/04/28 08:57:13;;;;;;;19.45;9.50;;;;;;;12.50;53.85;102930.25;6531872;22;20000;-79
2022/04/28 08:59:45;;;;;;;20.65;8.82;;;;;;;12.45;52.99;102931.94;6532677;22;20418;-80
2022/04/28 09:02:27;;;;;;;;;;;;;;;12.82;54.45;102929.81;6540027;22;20008;-80
2022/04/28 09:05:02;;;;;;;18.20;9.27;;;;;;;12.85;54.08;102932.47;6539830;22;19911;-81
2022/04/28 09:07:44;;;;;;;18.80;10.02;;;;;;;12.70;52.66;102921.78;6532448;22;20004;-80
2022/04/28 09:10:29;;;;;;;18.13;8.90;;;;;;;12.86;52.86;102926.34;6534126;22;20008;-81
2022/04/28 09:15:56;;;;;;;18.60;9.75;;;;;;;12.89;53.48;102922.91;6533898;22;20030;-80
2022/04/28 09:18:27;;;;;;;20.00;9.80;;;;;;;13.06;52.33;102918.75;6534569;22;20015;-78
2022/04/28 09:20:59;;;;;;;19.87;9.73;;;;;;;13.19;52.87;102924.13;6533338;22;20003;-80
2022/04/28 09:23:30;;;;;;;16.83;8.87;;;;;;;13.44;51.65;102915.69;6532590;22;20004;-78
2022/04/28 09:26:02;;;;;;;16.13;9.10;;;;;;;13.75;50.87;102921.19;6533997;22;20341;-79
2022/04/28 09:28:33;;;;;;;18.90;8.87;;;;;;;13.96;50.74;102922.19;6532546;22;19999;-80
2022/04/28 09:31:09;;;;;;;23.00;10.37;;;;;;;14.32;49.32;102907.59;6533934;22;20003;-80
2022/04/28 09:33:41;;;;;;;21.48;9.95;;;;;;;15.38;46.08;102905.34;6532642;22;20015;-79
2022/04/28 09:36:13;;;;;;;;;;;;;;;16.96;45.95;102911.19;6533506;22;20004;-81
2022/04/28 09:38:45;;;;;;;13.27;8.00;;;;;;;17.95;40.77;102908.72;6532248;22;19950;-80
2022/04/28 09:44:11;;;;;;;16.17;8.57;;;;;;;18.25;38.29;102913.69;6530517;22;20019;-79
2022/04/28 09:46:44;;;;;;;18.95;9.02;;;;;;;18.87;36.59;102909.41;6530810;22;20035;-79
2022/04/28 09:49:17;;;;;;;15.48;8.02;;;;;;;19.19;35.11;102908.09;6531617;22;20022;-80
2022/04/28 09:51:57;;;;;;;12.93;7.00;;;;;;;19.89;35.13;102912.25;6530077;22;20019;-80
2022/04/28 09:54:32;;;;;;;12.73;7.70;;;;;;;20.89;32.99;102902.31;6529938;22;20000;-80
2022/04/28 09:57:04;;;;;;;17.13;8.38;;;;;;;21.45;31.39;102902.75;6504361;22;20004;-80
2022/04/28 09:59:36;;;;;;;18.02;7.88;;;;;;;21.59;31.19;102896.25;6532138;22;20008;-80
2022/04/28 10:02:16;;;;;;;15.80;7.85;;;;;;;21.42;32.36;102896.66;6532899;22;20003;-81
2022/04/28 10:04:50;;;;;;;16.17;8.10;;;;;;;21.88;30.69;102891.94;6531572;22;20101;-81
2022/04/28 10:07:23;;;;;;;16.30;7.70;;;;;;;22.05;29.27;102887.06;6532204;22;20000;-80
2022/04/28 10:09:54;;;;;;;;;;;;;;;24.14;28.55;102894.66;6503621;22;20074;-80
2022/04/28 10:12:31;;;;;;;18.93;7.53;;;;;;;22.69;29.24;102876.38;6503686;22;19907;-80
2022/04/28 10:15:05;;;;;;;14.57;7.47;;;;;;;22.62;28.54;102879.25;6529604;22;20056;-81
2022/04/28 10:17:48;;;;;;;14.77;7.45;;;;;;;21.48;29.71;102888.56;6530627;22;20007;-80
2022/04/28 10:20:36;;;;;;;14.88;8.15;;;;;;;20.40;31.74;102885.69;6531205;22;20356;-79
2022/04/28 10:23:10;;;;;;;17.13;7.22;;;;;;;20.23;30.88;102883.34;6531956;22;20012;-80
2022/04/28 10:34:53;;;;;;;13.35;7.35;;;;;;;23.01;28.08;102885.13;6531171;22;20020;-81
2022/04/28 10:37:36;;;;;;;12.93;7.70;;;;;;;23.16;27.51;102880.25;6532510;22;20078;-80
2022/04/28 10:40:13;;;;;;;13.82;7.50;;;;;;;23.71;27.29;102875.72;6532177;22;20251;-80
2022/04/28 10:42:45;;;;;;;13.40;7.38;;;;;;;24.16;26.34;102876.81;6532326;22;20013;-80
2022/04/28 10:45:24;;;;;;;17.10;7.80;;;;;;;22.83;27.03;102877.72;6531608;22;20074;-80
2022/04/28 10:48:25;;;;;;;13.45;8.27;;;;;;;21.97;28.73;102873.13;6531435;22;20008;-80
2022/04/28 10:51:00;;;;;;;12.15;8.18;;;;;;;22.06;27.91;102872.88;6529734;22;20341;-81
2022/04/28 10:53:32;;;;;;;14.65;7.50;;;;;;;22.56;27.88;102859.91;6530609;22;20015;-80
2022/04/28 10:56:09;;;;;;;14.38;7.72;;;;;;;22.65;27.85;102866.72;6530073;22;20003;-80
2022/04/28 10:58:40;;;;;;;12.68;8.00;;;;;;;22.10;28.29;102868.34;6532435;22;20004;-80
2022/04/28 11:01:25;;;;;;;14.63;7.97;;;;;;;23.34;28.36;102858.34;6532119;22;20011;-80
2022/04/28 11:04:03;;;;;;;14.13;7.72;;;;;;;23.45;26.89;102873.97;6528163;22;20014;-80
2022/04/28 11:06:37;;;;;;;14.98;9.00;;;;;;;22.35;28.27;102864.09;6532197;22;20455;-79
2022/04/28 11:09:09;;;;;;;12.90;7.70;;;;;;;23.79;26.95;102864.81;6530983;22;20014;-79
2022/04/28 11:11:45;;;;;;;18.30;9.05;;;;;;;23.35;27.23;102872.56;6530237;22;20083;-80
2022/04/28 11:14:17;;;;;;;16.95;7.53;;;;;;;23.01;27.07;102865.66;6531112;22;20000;-80
2022/04/28 11:16:49;;;;;;;16.63;8.40;;;;;;;23.61;26.56;102861.84;6530779;22;20330;-81
2022/04/28 11:19:20;;;;;;;14.13;7.97;;;;;;;25.19;24.96;102850.59;6530598;22;20003;-80
2022/04/28 11:21:52;;;;;;;17.20;8.32;;;;;;;25.63;24.30;102850.50;6530448;22;20004;-79
2022/04/28 11:24:27;;;;;;;13.77;8.25;;;;;;;26.49;23.61;102854.63;6531751;22;20038;-79
2022/04/28 11:26:59;;;;;;;10.63;7.35;;;;;;;27.59;22.57;102866.16;6531545;22;20058;-79
2022/04/28 11:29:31;;;;;;;15.48;8.65;;;;;;;27.89;21.01;102846.75;6530692;22;20003;-81
2022/04/28 11:32:02;;;;;;;13.88;8.88;;;;;;;26.51;22.26;102849.22;6531425;22;20007;-81
2022/04/28 11:34:34;;;;;;;14.27;8.70;;;;;;;24.83;24.35;102846.72;6530635;22;20039;-80
2022/04/28 11:37:17;;;;;;;14.07;8.77;;;;;;;26.14;23.30;102837.56;6503683;22;20015;-80
2022/04/28 11:39:57;;;;;;;13.93;8.82;;;;;;;24.16;25.31;102852.84;6530728;22;20424;-79
2022/04/28 11:42:28;;;;;;;15.38;8.60;;;;;;;24.78;25.41;102846.03;6531000;22;20018;-79
2022/04/28 11:45:00;;;;;;;13.35;8.52;;;;;;;26.88;22.39;102847.44;6529832;22;20501;-81
2022/04/28 11:47:41;;;;;;;14.05;8.93;;;;;;;26.47;22.52;102837.78;6530462;22;20008;-80
2022/04/28 11:50:23;;;;;;;11.65;7.97;;;;;;;28.10;22.32;102852.78;6531668;22;20018;-80
2022/04/28 11:53:05;;;;;;;12.02;7.07;;;;;;;28.90;20.48;102852.81;6531459;22;20098;-80
2022/04/28 11:55:38;;;;;;;13.93;8.23;;;;;;;28.84;19.92;102845.13;6531846;22;20023;-80
2022/04/28 11:58:13;;;;;;;11.48;7.63;;;;;;;28.80;21.38;102847.09;6528993;22;20368;-80
2022/04/28 12:00:46;;;;;;;13.80;8.45;;;;;;;28.81;20.55;102842.63;6530501;22;20332;-79
2022/04/28 12:03:24;;;;;;;16.23;8.80;;;;;;;28.76;20.47;102834.84;6529917;22;20007;-80
2022/04/28 12:05:56;;;;;;;15.73;8.23;;;;;;;29.60;20.82;102833.47;6529443;22;19999;-79
2022/04/28 12:08:27;;;;;;;;;;;;;;;31.61;18.77;102838.31;6530247;22;20462;-79
2022/04/28 12:19:30;;;;;;;15.38;9.27;;;;;;;27.08;21.91;102825.03;6530154;22;20039;-80
2022/04/28 12:22:02;;;;;;;17.50;8.60;;;;;;;27.94;21.00;102831.31;6530736;22;20003;-80
2022/04/28 12:24:34;;;;;;;13.93;8.85;;;;;;;27.02;21.56;102826.22;6529551;22;20248;-79
2022/04/28 12:27:11;;;;;;;;;;;;;;;29.03;20.96;102827.00;6530059;22;20083;-80